createdAt,value
2023-05-14T00:01:13.169Z,41.82
2023-05-14T00:03:58.718Z,41.85
2023-05-14T00:06:43.909Z,42.00
2023-05-14T00:09:30.328Z,41.86
2023-05-14T00:12:15.572Z,42.51
2023-05-14T00:15:01.064Z,42.02
2023-05-14T00:17:46.502Z,42.20
2023-05-14T00:20:31.794Z,41.91
2023-05-14T00:23:16.655Z,42.06
2023-05-14T00:26:01.591Z,42.16
2023-05-14T00:28:46.509Z,42.19
2023-05-14T00:31:31.706Z,42.10
2023-05-14T00:34:16.488Z,42.44
2023-05-14T00:37:01.466Z,42.39
2023-05-14T00:39:46.332Z,42.06
2023-05-14T00:42:31.168Z,42.22
2023-05-14T00:45:16.213Z,42.23
2023-05-14T00:48:01.432Z,41.99
2023-05-14T00:50:47.745Z,42.16
2023-05-14T00:53:33.413Z,42.30
2023-05-14T00:56:19.308Z,42.30
2023-05-14T00:59:04.413Z,42.21
2023-05-14T01:01:49.421Z,42.06
2023-05-14T01:04:35.303Z,42.05
2023-05-14T01:07:33.651Z,41.93
2023-05-14T01:10:27.320Z,41.79
2023-05-14T01:13:22.774Z,41.54
2023-05-14T01:16:13.681Z,41.62
2023-05-14T01:19:00.796Z,41.43
2023-05-14T01:21:46.210Z,41.36
2023-05-14T01:24:31.637Z,41.03
2023-05-14T01:27:34.653Z,41.30
2023-05-14T01:30:22.297Z,41.12
2023-05-14T01:33:13.189Z,41.13
2023-05-14T01:35:58.564Z,41.13
2023-05-14T01:38:45.774Z,40.96
2023-05-14T01:41:31.962Z,41.07
2023-05-14T01:44:18.194Z,41.11
2023-05-14T01:47:03.566Z,41.11
2023-05-14T01:49:48.688Z,41.08
2023-05-14T01:52:33.654Z,40.92
2023-05-14T01:55:18.648Z,40.84
2023-05-14T01:58:03.865Z,40.65
2023-05-14T02:00:48.847Z,40.66
2023-05-14T02:03:33.689Z,40.61
2023-05-14T02:06:18.860Z,40.75
2023-05-14T02:09:05.345Z,40.62
2023-05-14T02:11:50.460Z,40.46
2023-05-14T02:14:35.918Z,40.45
2023-05-14T02:17:20.734Z,40.43
2023-05-14T02:20:06.381Z,40.49
2023-05-14T02:22:51.723Z,40.41
2023-05-14T02:25:37.543Z,40.25
2023-05-14T02:28:22.660Z,40.30
2023-05-14T02:31:07.423Z,40.18
2023-05-14T02:33:52.334Z,40.19
2023-05-14T02:36:37.219Z,40.40
2023-05-14T02:39:22.176Z,40.13
2023-05-14T02:42:07.502Z,40.10
2023-05-14T02:44:52.910Z,40.20
2023-05-14T02:47:38.449Z,39.94
2023-05-14T02:50:23.904Z,40.34
2023-05-14T02:53:09.091Z,40.07
2023-05-14T02:55:54.058Z,40.05
2023-05-14T02:58:39.130Z,40.30
2023-05-14T03:01:24.110Z,40.14
2023-05-14T03:04:09.405Z,40.21
2023-05-14T03:06:54.440Z,40.30
2023-05-14T03:09:39.192Z,40.36
2023-05-14T03:12:24.040Z,40.05
2023-05-14T03:15:09.517Z,40.26
2023-05-14T03:17:54.767Z,40.13
2023-05-14T03:20:40.214Z,40.54
2023-05-14T03:23:25.152Z,40.12
2023-05-14T03:26:10.029Z,40.25
2023-05-14T03:28:54.897Z,40.06
2023-05-14T03:31:39.972Z,40.36
2023-05-14T03:34:25.085Z,39.99
2023-05-14T03:37:10.917Z,40.35
2023-05-14T03:39:55.948Z,40.09
2023-05-14T03:42:40.808Z,40.39
2023-05-14T03:45:26.883Z,40.45
2023-05-14T03:48:12.021Z,40.13
2023-05-14T03:50:57.160Z,40.42
2023-05-14T03:53:42.030Z,40.46
2023-05-14T03:56:27.166Z,40.33
2023-05-14T03:59:12.165Z,40.39
2023-05-14T04:01:57.209Z,40.21
2023-05-14T04:04:42.327Z,40.29
2023-05-14T04:07:27.292Z,40.14
2023-05-14T04:10:13.694Z,40.33
2023-05-14T04:12:58.582Z,40.69
2023-05-14T04:15:43.760Z,40.08
2023-05-14T04:18:28.732Z,40.34
2023-05-14T04:21:13.620Z,40.30
2023-05-14T04:23:58.503Z,40.28
2023-05-14T04:26:43.440Z,40.29
2023-05-14T04:29:28.377Z,40.38
2023-05-14T04:32:13.193Z,40.39
2023-05-14T04:34:58.071Z,40.41
2023-05-14T04:37:42.889Z,40.29
2023-05-14T04:40:27.937Z,40.37
2023-05-14T04:43:12.910Z,40.28
2023-05-14T04:45:57.791Z,40.37
2023-05-14T04:48:42.877Z,40.45
2023-05-14T04:51:28.559Z,40.48
2023-05-14T04:54:13.551Z,40.25
2023-05-14T04:57:03.052Z,40.55
2023-05-14T04:59:47.957Z,40.45
2023-05-14T05:02:34.710Z,40.53
2023-05-14T05:05:20.136Z,40.52
2023-05-14T05:08:05.273Z,40.67
2023-05-14T05:10:50.431Z,40.60
2023-05-14T05:13:35.440Z,40.51
2023-05-14T05:16:20.618Z,40.72
2023-05-14T05:19:05.873Z,40.54
2023-05-14T05:21:51.217Z,40.49
2023-05-14T05:24:36.057Z,40.64
2023-05-14T05:27:22.015Z,40.52
2023-05-14T05:30:08.307Z,40.43
2023-05-14T05:32:53.375Z,40.50
2023-05-14T05:35:38.550Z,40.55
2023-05-14T05:38:23.206Z,40.52
2023-05-14T05:41:08.112Z,40.78
2023-05-14T05:43:52.982Z,40.62
2023-05-14T05:46:37.978Z,40.47
2023-05-14T05:49:23.024Z,40.62
2023-05-14T05:52:08.511Z,40.52
2023-05-14T05:54:53.682Z,40.65
2023-05-14T05:57:38.709Z,40.67
2023-05-14T06:00:24.690Z,40.51
2023-05-14T06:03:09.861Z,40.44
2023-05-14T06:05:55.271Z,40.81
2023-05-14T06:08:40.328Z,40.62
2023-05-14T06:11:25.579Z,40.72
2023-05-14T06:14:10.840Z,40.93
2023-05-14T06:16:55.842Z,40.94
2023-05-14T06:19:41.158Z,40.73
2023-05-14T06:22:26.117Z,40.83
2023-05-14T06:25:11.503Z,41.05
2023-05-14T06:27:56.510Z,40.88
2023-05-14T06:30:41.832Z,40.77
2023-05-14T06:33:30.840Z,41.02
2023-05-14T06:36:15.989Z,40.83
2023-05-14T06:39:01.011Z,41.00
2023-05-14T06:41:45.884Z,40.94
2023-05-14T06:44:31.034Z,41.11
2023-05-14T06:47:16.020Z,41.16
2023-05-14T06:50:01.909Z,40.95
2023-05-14T06:52:47.091Z,41.05
2023-05-14T06:55:32.093Z,41.19
2023-05-14T06:58:16.873Z,41.05
2023-05-14T07:01:01.873Z,41.16
2023-05-14T07:03:46.717Z,41.21
2023-05-14T07:06:32.570Z,41.18
2023-05-14T07:09:17.334Z,41.28
2023-05-14T07:12:02.170Z,41.18
2023-05-14T07:14:46.953Z,41.12
2023-05-14T07:17:31.875Z,41.32
2023-05-14T07:20:16.817Z,41.41
2023-05-14T07:23:01.747Z,40.94
2023-05-14T07:25:46.792Z,41.42
2023-05-14T07:28:31.969Z,41.26
2023-05-14T07:31:16.962Z,41.14
2023-05-14T07:34:01.944Z,41.08
2023-05-14T07:36:47.303Z,41.23
2023-05-14T07:39:32.170Z,41.23
2023-05-14T07:42:27.900Z,41.47
2023-05-14T07:45:19.904Z,41.34
2023-05-14T07:48:05.593Z,41.40
2023-05-14T07:50:51.582Z,41.45
2023-05-14T07:53:36.479Z,41.15
2023-05-14T07:56:22.674Z,41.29
2023-05-14T07:59:07.977Z,41.47
2023-05-14T08:01:52.872Z,41.32
2023-05-14T08:04:39.302Z,41.13
2023-05-14T08:07:24.319Z,41.13
2023-05-14T08:10:09.657Z,40.98
2023-05-14T08:12:54.895Z,41.46
2023-05-14T08:15:39.991Z,41.08
2023-05-14T08:18:24.948Z,41.05
2023-05-14T08:21:10.167Z,41.15
2023-05-14T08:23:55.313Z,41.23
2023-05-14T08:26:40.381Z,41.15
2023-05-14T08:29:25.935Z,41.02
2023-05-14T08:32:22.141Z,41.12
2023-05-14T08:35:08.720Z,41.01
2023-05-14T08:37:53.939Z,41.35
2023-05-14T08:40:39.362Z,40.89
2023-05-14T08:43:27.047Z,41.22
2023-05-14T08:46:13.962Z,41.18
2023-05-14T08:49:16.589Z,41.03
2023-05-14T08:52:02.112Z,41.04
2023-05-14T08:54:48.359Z,40.86
2023-05-14T08:57:34.109Z,40.87
2023-05-14T09:00:19.242Z,40.61
2023-05-14T09:03:07.093Z,40.68
2023-05-14T09:05:52.388Z,40.75
2023-05-14T09:08:38.767Z,40.63
2023-05-14T09:11:24.687Z,40.42
2023-05-14T09:14:10.172Z,40.35
2023-05-14T09:16:55.775Z,40.27
2023-05-14T09:19:41.012Z,40.26
2023-05-14T09:22:31.799Z,40.19
2023-05-14T09:25:17.050Z,40.40
2023-05-14T09:28:06.674Z,40.11
2023-05-14T09:30:52.232Z,40.35
2023-05-14T09:33:37.256Z,40.27
2023-05-14T09:36:23.222Z,40.13
2023-05-14T09:39:08.114Z,40.28
2023-05-14T09:41:53.505Z,40.15
2023-05-14T09:44:39.159Z,40.14
2023-05-14T09:47:24.328Z,40.02
2023-05-14T09:50:09.939Z,40.04
2023-05-14T09:52:56.115Z,40.27
2023-05-14T09:55:41.667Z,39.99
2023-05-14T09:58:27.004Z,40.07
2023-05-14T10:01:13.327Z,40.25
2023-05-14T10:03:59.101Z,39.84
2023-05-14T10:06:50.358Z,39.64
2023-05-14T10:09:38.352Z,39.72
2023-05-14T10:12:26.145Z,39.96
2023-05-14T10:15:20.346Z,39.82
2023-05-14T10:18:11.017Z,39.61
2023-05-14T10:21:06.259Z,39.63
2023-05-14T10:23:52.273Z,39.50
2023-05-14T10:26:39.435Z,39.72
2023-05-14T10:29:34.076Z,39.61
2023-05-14T10:32:20.926Z,39.34
2023-05-14T10:35:16.675Z,39.24
2023-05-14T10:38:02.098Z,39.33
2023-05-14T10:40:47.644Z,39.38
2023-05-14T10:43:37.855Z,39.22
2023-05-14T10:46:23.092Z,39.47
2023-05-14T10:49:08.105Z,39.44
2023-05-14T10:51:54.092Z,39.21
2023-05-14T10:54:39.303Z,39.23
2023-05-14T10:57:27.545Z,39.07
2023-05-14T11:00:13.995Z,38.87
2023-05-14T11:03:00.425Z,39.00
2023-05-14T11:05:46.222Z,39.30
2023-05-14T11:08:32.485Z,39.07
2023-05-14T11:11:19.174Z,38.63
2023-05-14T11:14:04.389Z,39.06
2023-05-14T11:16:50.305Z,38.94
2023-05-14T11:19:36.119Z,38.96
2023-05-14T11:22:21.212Z,38.94
2023-05-14T11:25:07.399Z,38.83
2023-05-14T11:27:55.941Z,38.50
2023-05-14T11:30:40.911Z,38.57
2023-05-14T11:33:27.777Z,38.96
2023-05-14T11:36:12.992Z,38.56
2023-05-14T11:38:58.207Z,38.60
2023-05-14T11:41:46.040Z,38.26
2023-05-14T11:44:32.190Z,38.63
2023-05-14T11:47:19.083Z,38.38
2023-05-14T11:50:04.426Z,38.63
2023-05-14T11:52:50.823Z,38.42
2023-05-14T11:55:36.448Z,38.25
2023-05-14T11:58:21.985Z,38.30
2023-05-14T12:01:06.965Z,38.46
2023-05-14T12:03:52.252Z,38.01
2023-05-14T12:06:39.051Z,38.18
2023-05-14T12:09:24.111Z,37.98
2023-05-14T12:12:11.436Z,38.02
2023-05-14T12:14:59.805Z,37.72
2023-05-14T12:17:52.269Z,38.30
2023-05-14T12:20:37.604Z,38.10
2023-05-14T12:23:30.914Z,37.74
2023-05-14T12:26:16.117Z,38.15
2023-05-14T12:29:02.416Z,37.47
2023-05-14T12:31:49.761Z,38.06
2023-05-14T12:34:37.327Z,37.50
2023-05-14T12:37:22.701Z,37.54
2023-05-14T12:40:09.797Z,37.48
2023-05-14T12:42:56.702Z,37.45
2023-05-14T12:45:41.821Z,37.47
2023-05-14T12:48:26.794Z,37.14
2023-05-14T12:51:12.479Z,37.84
2023-05-14T12:53:57.352Z,37.45
2023-05-14T12:56:42.661Z,37.48
2023-05-14T12:59:27.637Z,37.91
2023-05-14T13:02:13.607Z,37.94
2023-05-14T13:05:02.760Z,37.45
2023-05-14T13:07:47.765Z,37.35
2023-05-14T13:10:33.206Z,37.67
2023-05-14T13:13:18.370Z,38.07
2023-05-14T13:16:04.057Z,37.65
2023-05-14T13:18:48.858Z,37.69
2023-05-14T13:21:34.032Z,38.06
2023-05-14T13:24:18.874Z,38.02
2023-05-14T13:27:04.451Z,37.92
2023-05-14T13:29:49.459Z,38.08
2023-05-14T13:32:34.615Z,37.93
2023-05-14T13:35:19.722Z,38.08
2023-05-14T13:38:04.841Z,38.09
2023-05-14T13:40:49.810Z,37.72
2023-05-14T13:43:36.007Z,38.13
2023-05-14T13:46:21.337Z,38.24
2023-05-14T13:49:07.827Z,38.10
2023-05-14T13:51:52.885Z,37.79
2023-05-14T13:54:37.843Z,38.34
2023-05-14T13:57:23.090Z,38.38
2023-05-14T14:00:09.022Z,38.00
2023-05-14T14:02:54.024Z,38.22
2023-05-14T14:05:39.053Z,38.13
2023-05-14T14:08:24.777Z,38.38
2023-05-14T14:11:10.024Z,38.04
2023-05-14T14:13:55.275Z,38.32
2023-05-14T14:16:40.794Z,38.36
2023-05-14T14:19:25.798Z,38.21
2023-05-14T14:22:12.566Z,38.28
2023-05-14T14:24:57.717Z,38.19
2023-05-14T14:27:42.670Z,38.52
2023-05-14T14:30:27.982Z,38.51
2023-05-14T14:33:13.112Z,38.29
2023-05-14T14:35:57.977Z,38.43
2023-05-14T14:38:42.798Z,38.26
2023-05-14T14:41:27.806Z,38.34
2023-05-14T14:44:12.825Z,38.42
2023-05-14T14:46:57.997Z,38.67
2023-05-14T14:49:42.910Z,38.63
2023-05-14T14:52:28.424Z,38.63
2023-05-14T14:55:13.576Z,38.60
2023-05-14T14:57:58.442Z,38.41
2023-05-14T15:00:43.694Z,38.55
2023-05-14T15:03:28.938Z,38.54
2023-05-14T15:06:14.593Z,38.64
2023-05-14T15:08:59.782Z,38.35
2023-05-14T15:11:44.838Z,38.69
2023-05-14T15:14:29.738Z,38.54
2023-05-14T15:17:14.515Z,38.77
2023-05-14T15:19:59.414Z,38.87
2023-05-14T15:22:44.564Z,38.62
2023-05-14T15:25:29.949Z,38.47
2023-05-14T15:28:15.002Z,38.77
2023-05-14T15:31:00.007Z,38.79
2023-05-14T15:33:45.352Z,38.81
2023-05-14T15:36:30.952Z,38.52
2023-05-14T15:39:16.313Z,38.74
2023-05-14T15:42:01.414Z,38.58
2023-05-14T15:44:46.734Z,38.68
2023-05-14T15:47:32.200Z,38.62
2023-05-14T15:50:17.499Z,38.60
2023-05-14T15:53:02.707Z,38.72
2023-05-14T15:55:48.399Z,38.69
2023-05-14T15:58:33.728Z,38.59
2023-05-14T16:01:19.261Z,38.90
2023-05-14T16:04:04.886Z,38.85
2023-05-14T16:06:51.114Z,38.65
2023-05-14T16:09:36.952Z,38.97
2023-05-14T16:12:22.188Z,38.66
2023-05-14T16:15:08.312Z,38.64
2023-05-14T16:17:53.416Z,38.87
2023-05-14T16:20:38.560Z,39.01
2023-05-14T16:23:23.648Z,38.81
2023-05-14T16:26:08.953Z,39.06
2023-05-14T16:28:54.107Z,38.71
2023-05-14T16:31:39.476Z,38.99
2023-05-14T16:34:24.705Z,38.80
2023-05-14T16:37:11.350Z,39.14
2023-05-14T16:39:58.228Z,39.02
2023-05-14T16:42:43.576Z,38.98
2023-05-14T16:45:28.747Z,39.20
2023-05-14T16:48:14.076Z,38.97
2023-05-14T16:50:59.475Z,39.33
2023-05-14T16:53:44.399Z,39.01
2023-05-14T16:56:30.311Z,39.21
2023-05-14T16:59:15.967Z,38.92
2023-05-14T17:02:01.055Z,39.38
2023-05-14T17:04:46.462Z,39.22
2023-05-14T17:07:31.661Z,39.18
2023-05-14T17:10:16.858Z,39.32
2023-05-14T17:13:02.574Z,39.37
2023-05-14T17:15:47.977Z,39.21
2023-05-14T17:18:32.897Z,39.32
2023-05-14T17:21:18.287Z,39.46
2023-05-14T17:24:03.079Z,39.29
2023-05-14T17:26:47.978Z,39.35
2023-05-14T17:29:33.217Z,39.52
2023-05-14T17:32:18.553Z,39.40
2023-05-14T17:35:03.739Z,39.28
2023-05-14T17:37:48.952Z,39.51
2023-05-14T17:40:34.633Z,39.35
2023-05-14T17:43:19.530Z,39.48
2023-05-14T17:46:05.168Z,39.42
2023-05-14T17:48:50.280Z,39.43
2023-05-14T17:51:35.445Z,39.32
2023-05-14T17:54:20.423Z,39.27
2023-05-14T17:57:05.752Z,39.40
2023-05-14T17:59:50.908Z,39.38
2023-05-14T18:02:35.962Z,39.44
2023-05-14T18:05:21.612Z,39.51
2023-05-14T18:08:06.742Z,39.44
2023-05-14T18:10:51.767Z,39.41
2023-05-14T18:13:36.585Z,39.35
2023-05-14T18:16:21.415Z,39.28
2023-05-14T18:19:06.497Z,39.35
2023-05-14T18:21:51.917Z,39.39
2023-05-14T18:24:37.068Z,39.47
2023-05-14T18:27:21.955Z,39.24
2023-05-14T18:30:07.712Z,39.44
2023-05-14T18:32:52.804Z,39.51
2023-05-14T18:35:38.118Z,39.33
2023-05-14T18:38:23.438Z,39.64
2023-05-14T18:41:08.483Z,39.39
2023-05-14T18:43:53.642Z,39.49
2023-05-14T18:46:38.557Z,39.31
2023-05-14T18:49:23.351Z,39.30
2023-05-14T18:52:08.534Z,39.38
2023-05-14T18:54:54.766Z,39.21
2023-05-14T18:57:39.833Z,39.61
2023-05-14T19:00:24.737Z,39.52
2023-05-14T19:03:09.813Z,39.37
2023-05-14T19:05:55.270Z,39.51
2023-05-14T19:08:40.432Z,39.66
2023-05-14T19:11:26.036Z,39.48
2023-05-14T19:14:11.454Z,39.36
2023-05-14T19:16:56.849Z,39.48
2023-05-14T19:19:41.971Z,39.66
2023-05-14T19:22:26.998Z,39.57
2023-05-14T19:25:12.115Z,39.53
2023-05-14T19:27:57.739Z,39.62
2023-05-14T19:30:42.941Z,39.84
2023-05-14T19:33:28.742Z,39.78
2023-05-14T19:36:13.561Z,39.81
2023-05-14T19:38:58.696Z,40.00
2023-05-14T19:41:43.813Z,39.78
2023-05-14T19:44:28.967Z,39.60
2023-05-14T19:47:14.359Z,40.09
2023-05-14T19:49:59.456Z,39.76
2023-05-14T19:52:44.449Z,39.98
2023-05-14T19:55:29.681Z,39.75
2023-05-14T19:58:14.454Z,39.88
2023-05-14T20:01:00.746Z,39.98
2023-05-14T20:03:45.938Z,40.11
2023-05-14T20:06:32.076Z,39.99
2023-05-14T20:09:16.966Z,40.06
2023-05-14T20:12:01.784Z,40.05
2023-05-14T20:14:46.821Z,40.21
2023-05-14T20:17:31.723Z,40.12
2023-05-14T20:20:16.771Z,40.17
2023-05-14T20:23:02.122Z,40.27
2023-05-14T20:25:47.804Z,40.16
2023-05-14T20:28:32.994Z,40.20
2023-05-14T20:31:19.089Z,40.13
2023-05-14T20:34:04.332Z,40.30
2023-05-14T20:36:49.256Z,40.27
2023-05-14T20:39:34.239Z,40.17
2023-05-14T20:42:19.547Z,40.36
2023-05-14T20:45:05.117Z,40.49
2023-05-14T20:47:50.462Z,40.41
2023-05-14T20:50:36.458Z,40.45
2023-05-14T20:53:21.608Z,40.48
2023-05-14T20:56:07.015Z,40.50
2023-05-14T20:58:51.815Z,40.48
2023-05-14T21:01:36.859Z,40.33
2023-05-14T21:04:21.902Z,40.45
2023-05-14T21:07:07.155Z,40.38
2023-05-14T21:09:52.716Z,40.49
2023-05-14T21:12:38.118Z,40.40
2023-05-14T21:15:23.697Z,40.62
2023-05-14T21:18:09.230Z,40.57
2023-05-14T21:20:54.385Z,40.40
2023-05-14T21:23:39.317Z,40.48
2023-05-14T21:26:25.819Z,40.43
2023-05-14T21:29:11.302Z,40.55
2023-05-14T21:31:56.237Z,40.54
2023-05-14T21:34:41.266Z,40.44
2023-05-14T21:37:26.029Z,40.54
2023-05-14T21:40:12.497Z,40.48
2023-05-14T21:42:57.759Z,40.72
2023-05-14T21:45:43.833Z,40.65
2023-05-14T21:48:29.244Z,40.65
2023-05-14T21:51:14.538Z,40.57
2023-05-14T21:53:59.707Z,40.65
2023-05-14T21:56:44.667Z,40.78
2023-05-14T21:59:29.891Z,40.58
2023-05-14T22:02:14.880Z,40.50
2023-05-14T22:05:00.207Z,40.53
2023-05-14T22:07:45.689Z,40.63
2023-05-14T22:10:31.297Z,40.84
2023-05-14T22:13:16.592Z,40.62
2023-05-14T22:16:12.172Z,40.63
2023-05-14T22:18:58.797Z,40.59
2023-05-14T22:21:43.897Z,40.72
2023-05-14T22:24:28.712Z,40.92
2023-05-14T22:27:13.585Z,40.65
2023-05-14T22:29:59.116Z,40.69
2023-05-14T22:32:44.343Z,40.74
2023-05-14T22:35:29.445Z,40.88
2023-05-14T22:38:14.491Z,40.89
2023-05-14T22:40:59.545Z,40.89
2023-05-14T22:43:44.716Z,40.65
2023-05-14T22:46:29.992Z,40.67
2023-05-14T22:49:15.515Z,40.96
2023-05-14T22:52:00.438Z,40.98
2023-05-14T22:54:46.585Z,41.10
2023-05-14T22:57:32.910Z,40.97
2023-05-14T23:00:18.199Z,40.93
2023-05-14T23:03:03.576Z,41.01
2023-05-14T23:05:48.730Z,40.81
2023-05-14T23:08:33.578Z,41.19
2023-05-14T23:11:18.984Z,40.93
2023-05-14T23:14:03.879Z,40.89
2023-05-14T23:16:49.279Z,41.15
2023-05-14T23:19:34.532Z,40.97
2023-05-14T23:22:20.271Z,41.11
2023-05-14T23:25:06.979Z,41.08
2023-05-14T23:27:52.123Z,40.88
2023-05-14T23:30:37.247Z,40.84
2023-05-14T23:33:22.347Z,40.93
2023-05-14T23:36:07.953Z,41.12
2023-05-14T23:38:53.301Z,41.30
2023-05-14T23:41:38.398Z,40.96
2023-05-14T23:44:23.604Z,41.23
2023-05-14T23:47:08.790Z,41.10
2023-05-14T23:49:53.920Z,41.08
2023-05-14T23:52:38.870Z,40.98
2023-05-14T23:55:23.828Z,41.21
2023-05-14T23:58:09.261Z,41.19
